sensor_id;sensor_type;location;lat;lon;timestamp;temperature;humidity
6379;DHT22;3222;48.858;10.128;2023-03-05T00:00:50;1.00;99.90
6379;DHT22;3222;48.858;10.128;2023-03-05T00:03:16;1.00;99.90
6379;DHT22;3222;48.858;10.128;2023-03-05T00:05:42;1.00;99.90
6379;DHT22;3222;48.858;10.128;2023-03-05T00:08:07;1.00;99.90
6379;DHT22;3222;48.858;10.128;2023-03-05T00:10:33;1.00;99.90
6379;DHT22;3222;48.858;10.128;2023-03-05T00:12:58;1.00;99.90
6379;DHT22;3222;48.858;10.128;2023-03-05T00:15:24;1.00;99.90
6379;DHT22;3222;48.858;10.128;2023-03-05T00:17:50;1.00;99.90
6379;DHT22;3222;48.858;10.128;2023-03-05T00:20:16;1.00;99.90
6379;DHT22;3222;48.858;10.128;2023-03-05T00:22:41;1.10;99.90
6379;DHT22;3222;48.858;10.128;2023-03-05T00:25:07;1.00;99.90
6379;DHT22;3222;48.858;10.128;2023-03-05T00:27:33;1.00;99.90
6379;DHT22;3222;48.858;10.128;2023-03-05T00:29:59;1.00;99.90
6379;DHT22;3222;48.858;10.128;2023-03-05T00:32:24;1.00;99.90
6379;DHT22;3222;48.858;10.128;2023-03-05T00:34:50;1.00;99.90
6379;DHT22;3222;48.858;10.128;2023-03-05T00:37:16;1.20;99.90
6379;DHT22;3222;48.858;10.128;2023-03-05T00:39:41;1.10;99.90
6379;DHT22;3222;48.858;10.128;2023-03-05T00:42:07;1.10;99.90
6379;DHT22;3222;48.858;10.128;2023-03-05T00:44:33;1.00;99.90
6379;DHT22;3222;48.858;10.128;2023-03-05T00:46:59;1.00;99.90
6379;DHT22;3222;48.858;10.128;2023-03-05T00:49:25;1.00;99.90
6379;DHT22;3222;48.858;10.128;2023-03-05T00:51:50;1.00;99.90
6379;DHT22;3222;48.858;10.128;2023-03-05T00:54:16;1.00;99.90
6379;DHT22;3222;48.858;10.128;2023-03-05T00:56:42;1.10;99.90
6379;DHT22;3222;48.858;10.128;2023-03-05T00:59:07;1.10;99.90
6379;DHT22;3222;48.858;10.128;2023-03-05T01:01:34;1.10;99.90
6379;DHT22;3222;48.858;10.128;2023-03-05T01:04:01;1.00;99.90
6379;DHT22;3222;48.858;10.128;2023-03-05T01:06:27;1.10;99.90
6379;DHT22;3222;48.858;10.128;2023-03-05T01:08:54;1.00;99.90
6379;DHT22;3222;48.858;10.128;2023-03-05T01:11:21;1.20;99.90
6379;DHT22;3222;48.858;10.128;2023-03-05T01:13:47;1.20;99.90
6379;DHT22;3222;48.858;10.128;2023-03-05T01:16:12;1.10;99.90
6379;DHT22;3222;48.858;10.128;2023-03-05T01:18:39;1.10;99.90
6379;DHT22;3222;48.858;10.128;2023-03-05T01:21:05;1.10;99.90
6379;DHT22;3222;48.858;10.128;2023-03-05T01:23:30;1.00;99.90
6379;DHT22;3222;48.858;10.128;2023-03-05T01:25:58;1.00;99.90
6379;DHT22;3222;48.858;10.128;2023-03-05T01:28:25;1.00;99.90
6379;DHT22;3222;48.858;10.128;2023-03-05T01:30:51;1.00;99.90
6379;DHT22;3222;48.858;10.128;2023-03-05T01:33:17;1.00;99.90
6379;DHT22;3222;48.858;10.128;2023-03-05T01:35:45;1.00;99.90
6379;DHT22;3222;48.858;10.128;2023-03-05T01:38:11;1.00;99.90
6379;DHT22;3222;48.858;10.128;2023-03-05T01:40:37;1.00;99.90
6379;DHT22;3222;48.858;10.128;2023-03-05T01:43:21;1.10;99.90
6379;DHT22;3222;48.858;10.128;2023-03-05T01:46:26;1.00;99.90
6379;DHT22;3222;48.858;10.128;2023-03-05T01:49:05;1.00;99.90
6379;DHT22;3222;48.858;10.128;2023-03-05T01:52:24;1.00;99.90
6379;DHT22;3222;48.858;10.128;2023-03-05T01:54:30;1.10;99.90
6379;DHT22;3222;48.858;10.128;2023-03-05T01:57:03;1.20;99.90
6379;DHT22;3222;48.858;10.128;2023-03-05T01:59:31;1.30;99.90
6379;DHT22;3222;48.858;10.128;2023-03-05T02:01:57;1.20;99.90
6379;DHT22;3222;48.858;10.128;2023-03-05T02:04:29;1.20;99.90
6379;DHT22;3222;48.858;10.128;2023-03-05T02:06:57;1.10;99.90
6379;DHT22;3222;48.858;10.128;2023-03-05T02:09:23;1.10;99.90
6379;DHT22;3222;48.858;10.128;2023-03-05T02:11:51;1.20;99.90
6379;DHT22;3222;48.858;10.128;2023-03-05T02:14:17;1.20;99.90
6379;DHT22;3222;48.858;10.128;2023-03-05T02:16:42;1.60;99.90
6379;DHT22;3222;48.858;10.128;2023-03-05T02:19:10;1.40;99.90
6379;DHT22;3222;48.858;10.128;2023-03-05T02:21:47;1.20;99.90
6379;DHT22;3222;48.858;10.128;2023-03-05T02:24:15;1.10;99.90
6379;DHT22;3222;48.858;10.128;2023-03-05T02:26:42;1.10;99.90
6379;DHT22;3222;48.858;10.128;2023-03-05T02:29:12;1.20;99.90
6379;DHT22;3222;48.858;10.128;2023-03-05T02:31:40;1.10;99.90
6379;DHT22;3222;48.858;10.128;2023-03-05T02:34:06;1.30;99.90
6379;DHT22;3222;48.858;10.128;2023-03-05T02:36:32;1.20;99.90
6379;DHT22;3222;48.858;10.128;2023-03-05T02:38:59;1.20;99.90
6379;DHT22;3222;48.858;10.128;2023-03-05T02:41:25;1.20;99.90
6379;DHT22;3222;48.858;10.128;2023-03-05T02:43:52;1.20;99.90
6379;DHT22;3222;48.858;10.128;2023-03-05T02:46:18;1.30;99.90
6379;DHT22;3222;48.858;10.128;2023-03-05T02:48:44;1.20;99.90
6379;DHT22;3222;48.858;10.128;2023-03-05T02:51:11;1.10;99.90
6379;DHT22;3222;48.858;10.128;2023-03-05T02:53:37;1.10;99.90
6379;DHT22;3222;48.858;10.128;2023-03-05T02:56:03;1.10;99.90
6379;DHT22;3222;48.858;10.128;2023-03-05T02:58:31;1.10;99.90
6379;DHT22;3222;48.858;10.128;2023-03-05T03:00:57;1.20;99.90
6379;DHT22;3222;48.858;10.128;2023-03-05T03:03:23;1.10;99.90
6379;DHT22;3222;48.858;10.128;2023-03-05T03:05:48;1.10;99.90
6379;DHT22;3222;48.858;10.128;2023-03-05T03:08:15;1.00;99.90
6379;DHT22;3222;48.858;10.128;2023-03-05T03:10:41;1.10;99.90
6379;DHT22;3222;48.858;10.128;2023-03-05T03:13:06;1.20;99.90
6379;DHT22;3222;48.858;10.128;2023-03-05T03:15:32;1.10;99.90
6379;DHT22;3222;48.858;10.128;2023-03-05T03:17:57;1.20;99.90
6379;DHT22;3222;48.858;10.128;2023-03-05T03:20:23;1.20;99.90
6379;DHT22;3222;48.858;10.128;2023-03-05T03:22:49;1.10;99.90
6379;DHT22;3222;48.858;10.128;2023-03-05T03:25:20;1.10;99.90
6379;DHT22;3222;48.858;10.128;2023-03-05T03:27:50;1.10;99.90
6379;DHT22;3222;48.858;10.128;2023-03-05T03:30:16;1.00;99.90
6379;DHT22;3222;48.858;10.128;2023-03-05T03:32:42;1.00;99.90
6379;DHT22;3222;48.858;10.128;2023-03-05T03:35:09;1.10;99.90
6379;DHT22;3222;48.858;10.128;2023-03-05T03:37:35;1.10;99.90
6379;DHT22;3222;48.858;10.128;2023-03-05T03:40:02;1.10;99.90
6379;DHT22;3222;48.858;10.128;2023-03-05T03:42:31;1.00;99.90
6379;DHT22;3222;48.858;10.128;2023-03-05T03:44:57;1.10;99.90
6379;DHT22;3222;48.858;10.128;2023-03-05T03:47:24;1.10;99.90
6379;DHT22;3222;48.858;10.128;2023-03-05T03:49:53;1.20;99.90
6379;DHT22;3222;48.858;10.128;2023-03-05T03:52:19;1.40;99.90
6379;DHT22;3222;48.858;10.128;2023-03-05T03:54:45;1.30;99.90
6379;DHT22;3222;48.858;10.128;2023-03-05T03:57:11;1.20;99.90
6379;DHT22;3222;48.858;10.128;2023-03-05T03:59:37;1.10;99.90
6379;DHT22;3222;48.858;10.128;2023-03-05T04:02:02;1.20;99.90
6379;DHT22;3222;48.858;10.128;2023-03-05T04:04:28;1.30;99.90
6379;DHT22;3222;48.858;10.128;2023-03-05T04:06:55;1.20;99.90
6379;DHT22;3222;48.858;10.128;2023-03-05T04:09:20;1.10;99.90
6379;DHT22;3222;48.858;10.128;2023-03-05T04:11:46;1.10;99.90
6379;DHT22;3222;48.858;10.128;2023-03-05T04:14:11;1.10;99.90
6379;DHT22;3222;48.858;10.128;2023-03-05T04:16:37;1.20;99.90
6379;DHT22;3222;48.858;10.128;2023-03-05T04:19:03;1.30;99.90
6379;DHT22;3222;48.858;10.128;2023-03-05T04:21:28;1.30;99.90
6379;DHT22;3222;48.858;10.128;2023-03-05T04:23:54;1.20;99.90
6379;DHT22;3222;48.858;10.128;2023-03-05T04:26:20;1.30;99.90
6379;DHT22;3222;48.858;10.128;2023-03-05T04:28:46;1.20;99.90
6379;DHT22;3222;48.858;10.128;2023-03-05T04:31:12;1.20;99.90
6379;DHT22;3222;48.858;10.128;2023-03-05T04:33:38;1.10;99.90
6379;DHT22;3222;48.858;10.128;2023-03-05T04:36:04;1.10;99.90
6379;DHT22;3222;48.858;10.128;2023-03-05T04:38:30;1.30;99.90
6379;DHT22;3222;48.858;10.128;2023-03-05T04:40:55;1.30;99.90
6379;DHT22;3222;48.858;10.128;2023-03-05T04:43:21;1.20;99.90
6379;DHT22;3222;48.858;10.128;2023-03-05T04:45:47;1.20;99.90
6379;DHT22;3222;48.858;10.128;2023-03-05T04:48:12;1.20;99.90
6379;DHT22;3222;48.858;10.128;2023-03-05T04:50:38;1.20;99.90
6379;DHT22;3222;48.858;10.128;2023-03-05T04:53:05;1.30;99.90
6379;DHT22;3222;48.858;10.128;2023-03-05T04:55:30;1.20;99.90
6379;DHT22;3222;48.858;10.128;2023-03-05T04:57:56;1.20;99.90
6379;DHT22;3222;48.858;10.128;2023-03-05T05:00:22;1.20;99.90
6379;DHT22;3222;48.858;10.128;2023-03-05T05:02:50;1.20;99.90
6379;DHT22;3222;48.858;10.128;2023-03-05T05:05:19;1.20;99.90
6379;DHT22;3222;48.858;10.128;2023-03-05T05:07:45;1.30;99.90
6379;DHT22;3222;48.858;10.128;2023-03-05T05:10:12;1.30;99.90
6379;DHT22;3222;48.858;10.128;2023-03-05T05:12:38;1.30;99.90
6379;DHT22;3222;48.858;10.128;2023-03-05T05:15:05;1.20;99.90
6379;DHT22;3222;48.858;10.128;2023-03-05T05:17:32;1.20;99.90
6379;DHT22;3222;48.858;10.128;2023-03-05T05:20:02;1.30;99.90
6379;DHT22;3222;48.858;10.128;2023-03-05T05:22:31;1.40;99.90
6379;DHT22;3222;48.858;10.128;2023-03-05T05:24:57;1.40;99.90
6379;DHT22;3222;48.858;10.128;2023-03-05T05:27:23;1.30;99.90
6379;DHT22;3222;48.858;10.128;2023-03-05T05:29:49;1.40;99.90
6379;DHT22;3222;48.858;10.128;2023-03-05T05:32:22;1.30;99.90
6379;DHT22;3222;48.858;10.128;2023-03-05T05:34:52;1.30;99.90
6379;DHT22;3222;48.858;10.128;2023-03-05T05:37:18;1.40;99.90
6379;DHT22;3222;48.858;10.128;2023-03-05T05:39:43;1.20;99.90
6379;DHT22;3222;48.858;10.128;2023-03-05T05:42:15;1.40;99.90
6379;DHT22;3222;48.858;10.128;2023-03-05T05:44:41;1.40;99.90
6379;DHT22;3222;48.858;10.128;2023-03-05T05:47:07;1.30;99.90
6379;DHT22;3222;48.858;10.128;2023-03-05T05:49:32;1.30;99.90
6379;DHT22;3222;48.858;10.128;2023-03-05T05:51:58;1.30;99.90
6379;DHT22;3222;48.858;10.128;2023-03-05T05:54:24;1.40;99.90
6379;DHT22;3222;48.858;10.128;2023-03-05T05:56:49;1.50;99.90
6379;DHT22;3222;48.858;10.128;2023-03-05T05:59:15;1.40;99.90
6379;DHT22;3222;48.858;10.128;2023-03-05T06:01:40;1.40;99.90
6379;DHT22;3222;48.858;10.128;2023-03-05T06:04:06;1.40;99.90
6379;DHT22;3222;48.858;10.128;2023-03-05T06:06:32;1.30;99.90
6379;DHT22;3222;48.858;10.128;2023-03-05T06:08:59;1.40;99.90
6379;DHT22;3222;48.858;10.128;2023-03-05T06:11:25;1.40;99.90
6379;DHT22;3222;48.858;10.128;2023-03-05T06:13:51;1.30;99.90
6379;DHT22;3222;48.858;10.128;2023-03-05T06:16:20;1.40;99.90
6379;DHT22;3222;48.858;10.128;2023-03-05T06:18:46;1.30;99.90
6379;DHT22;3222;48.858;10.128;2023-03-05T06:21:14;1.40;99.90
6379;DHT22;3222;48.858;10.128;2023-03-05T06:23:40;1.40;99.90
6379;DHT22;3222;48.858;10.128;2023-03-05T06:26:07;1.40;99.90
6379;DHT22;3222;48.858;10.128;2023-03-05T06:28:34;1.40;99.90
6379;DHT22;3222;48.858;10.128;2023-03-05T06:31:05;1.40;99.90
6379;DHT22;3222;48.858;10.128;2023-03-05T06:33:31;1.30;99.90
6379;DHT22;3222;48.858;10.128;2023-03-05T06:35:57;1.40;99.90
6379;DHT22;3222;48.858;10.128;2023-03-05T06:38:23;1.40;99.90
6379;DHT22;3222;48.858;10.128;2023-03-05T06:40:49;1.30;99.90
6379;DHT22;3222;48.858;10.128;2023-03-05T06:43:15;1.30;99.90
6379;DHT22;3222;48.858;10.128;2023-03-05T06:45:41;1.30;99.90
6379;DHT22;3222;48.858;10.128;2023-03-05T06:48:07;1.30;99.90
6379;DHT22;3222;48.858;10.128;2023-03-05T06:50:36;1.30;99.90
6379;DHT22;3222;48.858;10.128;2023-03-05T06:53:02;1.40;99.90
6379;DHT22;3222;48.858;10.128;2023-03-05T06:55:28;1.40;99.90
6379;DHT22;3222;48.858;10.128;2023-03-05T06:57:54;1.40;99.90
6379;DHT22;3222;48.858;10.128;2023-03-05T07:00:20;1.40;99.90
6379;DHT22;3222;48.858;10.128;2023-03-05T07:02:46;1.40;99.90
6379;DHT22;3222;48.858;10.128;2023-03-05T07:05:12;1.40;99.90
6379;DHT22;3222;48.858;10.128;2023-03-05T07:07:38;1.50;99.90
6379;DHT22;3222;48.858;10.128;2023-03-05T07:10:04;1.40;99.90
6379;DHT22;3222;48.858;10.128;2023-03-05T07:12:32;1.40;99.90
6379;DHT22;3222;48.858;10.128;2023-03-05T07:14:58;1.30;99.90
6379;DHT22;3222;48.858;10.128;2023-03-05T07:17:26;1.30;99.90
6379;DHT22;3222;48.858;10.128;2023-03-05T07:19:51;1.20;99.90
6379;DHT22;3222;48.858;10.128;2023-03-05T07:22:17;1.30;99.90
6379;DHT22;3222;48.858;10.128;2023-03-05T07:24:44;1.40;99.90
6379;DHT22;3222;48.858;10.128;2023-03-05T07:27:10;1.40;99.90
6379;DHT22;3222;48.858;10.128;2023-03-05T07:29:36;1.40;99.90
6379;DHT22;3222;48.858;10.128;2023-03-05T07:32:01;1.40;99.90
6379;DHT22;3222;48.858;10.128;2023-03-05T07:34:27;1.40;99.90
6379;DHT22;3222;48.858;10.128;2023-03-05T07:36:53;1.30;99.90
6379;DHT22;3222;48.858;10.128;2023-03-05T07:39:19;1.30;99.90
6379;DHT22;3222;48.858;10.128;2023-03-05T07:41:46;1.50;99.90
6379;DHT22;3222;48.858;10.128;2023-03-05T07:44:13;1.40;99.90
6379;DHT22;3222;48.858;10.128;2023-03-05T07:46:38;1.30;99.90
6379;DHT22;3222;48.858;10.128;2023-03-05T07:49:04;1.30;99.90
6379;DHT22;3222;48.858;10.128;2023-03-05T07:51:30;1.30;99.90
6379;DHT22;3222;48.858;10.128;2023-03-05T07:53:57;1.50;99.90
6379;DHT22;3222;48.858;10.128;2023-03-05T07:56:31;1.40;99.90
6379;DHT22;3222;48.858;10.128;2023-03-05T07:59:01;1.30;99.90
6379;DHT22;3222;48.858;10.128;2023-03-05T08:01:29;1.30;99.90
6379;DHT22;3222;48.858;10.128;2023-03-05T08:03:55;1.30;99.90
6379;DHT22;3222;48.858;10.128;2023-03-05T08:06:21;1.30;99.90
6379;DHT22;3222;48.858;10.128;2023-03-05T08:08:46;1.30;99.90
6379;DHT22;3222;48.858;10.128;2023-03-05T08:11:13;1.30;99.90
6379;DHT22;3222;48.858;10.128;2023-03-05T08:13:40;1.20;99.90
6379;DHT22;3222;48.858;10.128;2023-03-05T08:16:08;1.20;99.90
6379;DHT22;3222;48.858;10.128;2023-03-05T08:18:34;1.30;99.90
6379;DHT22;3222;48.858;10.128;2023-03-05T08:21:00;1.40;99.90
6379;DHT22;3222;48.858;10.128;2023-03-05T08:23:26;1.50;99.90
6379;DHT22;3222;48.858;10.128;2023-03-05T08:25:52;1.40;99.90
6379;DHT22;3222;48.858;10.128;2023-03-05T08:28:17;1.40;99.90
6379;DHT22;3222;48.858;10.128;2023-03-05T08:30:47;1.50;99.90
6379;DHT22;3222;48.858;10.128;2023-03-05T08:33:14;1.40;99.90
6379;DHT22;3222;48.858;10.128;2023-03-05T08:35:42;1.40;99.90
6379;DHT22;3222;48.858;10.128;2023-03-05T08:38:07;1.50;99.90
6379;DHT22;3222;48.858;10.128;2023-03-05T08:40:33;1.50;99.90
6379;DHT22;3222;48.858;10.128;2023-03-05T08:42:59;1.50;99.90
6379;DHT22;3222;48.858;10.128;2023-03-05T08:45:26;1.50;99.90
6379;DHT22;3222;48.858;10.128;2023-03-05T08:47:53;1.60;99.90
6379;DHT22;3222;48.858;10.128;2023-03-05T08:50:19;1.50;99.90
6379;DHT22;3222;48.858;10.128;2023-03-05T08:52:46;1.60;99.90
6379;DHT22;3222;48.858;10.128;2023-03-05T08:55:12;1.60;99.90
6379;DHT22;3222;48.858;10.128;2023-03-05T08:57:38;1.60;99.90
6379;DHT22;3222;48.858;10.128;2023-03-05T09:00:04;1.60;99.90
6379;DHT22;3222;48.858;10.128;2023-03-05T09:02:29;1.60;99.90
6379;DHT22;3222;48.858;10.128;2023-03-05T09:04:55;1.60;99.90
6379;DHT22;3222;48.858;10.128;2023-03-05T09:07:21;1.60;99.90
6379;DHT22;3222;48.858;10.128;2023-03-05T09:09:47;1.60;99.90
6379;DHT22;3222;48.858;10.128;2023-03-05T09:12:12;1.60;99.90
6379;DHT22;3222;48.858;10.128;2023-03-05T09:14:40;1.50;99.90
6379;DHT22;3222;48.858;10.128;2023-03-05T09:17:07;1.50;99.90
6379;DHT22;3222;48.858;10.128;2023-03-05T09:19:32;1.50;99.90
6379;DHT22;3222;48.858;10.128;2023-03-05T09:21:58;1.50;99.90
6379;DHT22;3222;48.858;10.128;2023-03-05T09:24:24;1.50;99.90
6379;DHT22;3222;48.858;10.128;2023-03-05T09:26:50;1.70;99.90
6379;DHT22;3222;48.858;10.128;2023-03-05T09:29:16;1.70;99.90
6379;DHT22;3222;48.858;10.128;2023-03-05T09:31:41;1.70;99.90
6379;DHT22;3222;48.858;10.128;2023-03-05T09:34:10;1.70;99.90
6379;DHT22;3222;48.858;10.128;2023-03-05T09:36:36;1.70;99.90
6379;DHT22;3222;48.858;10.128;2023-03-05T09:39:02;1.70;99.90
6379;DHT22;3222;48.858;10.128;2023-03-05T09:44:36;1.60;99.90
6379;DHT22;3222;48.858;10.128;2023-03-05T09:52:44;1.60;99.90
6379;DHT22;3222;48.858;10.128;2023-03-05T09:55:55;1.70;99.90
6379;DHT22;3222;48.858;10.128;2023-03-05T10:01:13;1.60;99.90
6379;DHT22;3222;48.858;10.128;2023-03-05T10:11:59;1.70;99.90
6379;DHT22;3222;48.858;10.128;2023-03-05T10:14:33;1.70;99.90
6379;DHT22;3222;48.858;10.128;2023-03-05T10:22:31;1.90;99.90
6379;DHT22;3222;48.858;10.128;2023-03-05T10:41:31;1.80;99.90
6379;DHT22;3222;48.858;10.128;2023-03-05T10:44:09;1.90;99.90
6379;DHT22;3222;48.858;10.128;2023-03-05T10:46:37;1.90;99.90
6379;DHT22;3222;48.858;10.128;2023-03-05T10:49:23;1.90;99.90
6379;DHT22;3222;48.858;10.128;2023-03-05T10:51:58;1.90;99.90
6379;DHT22;3222;48.858;10.128;2023-03-05T10:54:30;1.90;99.90
6379;DHT22;3222;48.858;10.128;2023-03-05T10:57:17;1.80;99.90
6379;DHT22;3222;48.858;10.128;2023-03-05T10:59:50;1.80;99.90
6379;DHT22;3222;48.858;10.128;2023-03-05T11:02:18;1.90;99.90
6379;DHT22;3222;48.858;10.128;2023-03-05T11:04:45;2.00;99.90
6379;DHT22;3222;48.858;10.128;2023-03-05T11:12:28;1.90;99.90
6379;DHT22;3222;48.858;10.128;2023-03-05T11:17:46;1.90;99.90
6379;DHT22;3222;48.858;10.128;2023-03-05T11:25:29;2.10;99.90
6379;DHT22;3222;48.858;10.128;2023-03-05T11:27:57;2.00;99.90
6379;DHT22;3222;48.858;10.128;2023-03-05T11:35:39;2.00;99.90
6379;DHT22;3222;48.858;10.128;2023-03-05T11:38:18;2.00;99.90
6379;DHT22;3222;48.858;10.128;2023-03-05T11:40:45;2.00;99.90
6379;DHT22;3222;48.858;10.128;2023-03-05T11:43:17;2.10;99.90
6379;DHT22;3222;48.858;10.128;2023-03-05T11:45:43;2.00;99.90
6379;DHT22;3222;48.858;10.128;2023-03-05T11:48:36;2.00;99.90
6379;DHT22;3222;48.858;10.128;2023-03-05T11:51:09;2.00;99.90
6379;DHT22;3222;48.858;10.128;2023-03-05T11:53:39;1.90;99.90
6379;DHT22;3222;48.858;10.128;2023-03-05T11:58:56;2.10;99.90
6379;DHT22;3222;48.858;10.128;2023-03-05T12:01:26;2.20;99.90
6379;DHT22;3222;48.858;10.128;2023-03-05T12:03:54;2.10;99.90
6379;DHT22;3222;48.858;10.128;2023-03-05T12:06:28;2.00;99.90
6379;DHT22;3222;48.858;10.128;2023-03-05T12:08:59;2.10;99.90
6379;DHT22;3222;48.858;10.128;2023-03-05T12:11:30;2.10;99.90
6379;DHT22;3222;48.858;10.128;2023-03-05T12:17:05;2.00;99.90
6379;DHT22;3222;48.858;10.128;2023-03-05T12:19:37;2.00;99.90
6379;DHT22;3222;48.858;10.128;2023-03-05T12:22:19;2.10;99.90
6379;DHT22;3222;48.858;10.128;2023-03-05T12:24:45;2.10;99.90
6379;DHT22;3222;48.858;10.128;2023-03-05T12:27:13;2.00;99.90
6379;DHT22;3222;48.858;10.128;2023-03-05T12:34:57;2.10;99.90
6379;DHT22;3222;48.858;10.128;2023-03-05T12:42:45;2.20;99.90
6379;DHT22;3222;48.858;10.128;2023-03-05T12:47:40;2.20;99.90
6379;DHT22;3222;48.858;10.128;2023-03-05T12:52:58;2.30;99.90
6379;DHT22;3222;48.858;10.128;2023-03-05T12:58:32;2.20;99.90
6379;DHT22;3222;48.858;10.128;2023-03-05T13:01:18;2.10;99.90
6379;DHT22;3222;48.858;10.128;2023-03-05T13:04:11;2.20;99.90
6379;DHT22;3222;48.858;10.128;2023-03-05T13:06:39;2.20;99.90
6379;DHT22;3222;48.858;10.128;2023-03-05T13:09:17;2.10;99.90
6379;DHT22;3222;48.858;10.128;2023-03-05T13:11:47;2.00;99.90
6379;DHT22;3222;48.858;10.128;2023-03-05T13:14:38;2.10;99.90
6379;DHT22;3222;48.858;10.128;2023-03-05T13:17:41;2.10;99.90
6379;DHT22;3222;48.858;10.128;2023-03-05T13:23:04;2.00;99.90
6379;DHT22;3222;48.858;10.128;2023-03-05T13:25:29;2.30;99.90
6379;DHT22;3222;48.858;10.128;2023-03-05T13:28:03;2.20;99.90
6379;DHT22;3222;48.858;10.128;2023-03-05T13:30:29;2.20;99.90
6379;DHT22;3222;48.858;10.128;2023-03-05T13:32:59;2.20;99.90
6379;DHT22;3222;48.858;10.128;2023-03-05T13:35:28;2.30;99.90
6379;DHT22;3222;48.858;10.128;2023-03-05T13:37:54;2.20;99.90
6379;DHT22;3222;48.858;10.128;2023-03-05T13:42:48;2.10;99.90
6379;DHT22;3222;48.858;10.128;2023-03-05T13:45:26;2.30;99.90
6379;DHT22;3222;48.858;10.128;2023-03-05T13:47:59;2.10;99.90
6379;DHT22;3222;48.858;10.128;2023-03-05T13:50:33;2.20;99.90
6379;DHT22;3222;48.858;10.128;2023-03-05T13:53:15;2.20;99.90
6379;DHT22;3222;48.858;10.128;2023-03-05T13:55:44;2.20;99.90
6379;DHT22;3222;48.858;10.128;2023-03-05T14:03:52;2.20;99.90
6379;DHT22;3222;48.858;10.128;2023-03-05T14:06:21;2.20;99.90
6379;DHT22;3222;48.858;10.128;2023-03-05T14:08:50;2.20;99.90
6379;DHT22;3222;48.858;10.128;2023-03-05T14:11:18;2.10;99.90
6379;DHT22;3222;48.858;10.128;2023-03-05T14:13:44;2.20;99.90
6379;DHT22;3222;48.858;10.128;2023-03-05T14:16:29;2.10;99.90
6379;DHT22;3222;48.858;10.128;2023-03-05T14:18:59;2.10;99.90
6379;DHT22;3222;48.858;10.128;2023-03-05T14:21:46;2.10;99.90
6379;DHT22;3222;48.858;10.128;2023-03-05T14:24:23;2.10;99.90
6379;DHT22;3222;48.858;10.128;2023-03-05T14:26:59;2.20;99.90
6379;DHT22;3222;48.858;10.128;2023-03-05T14:29:28;2.10;99.90
6379;DHT22;3222;48.858;10.128;2023-03-05T14:34:25;2.00;99.90
6379;DHT22;3222;48.858;10.128;2023-03-05T14:36:53;2.10;99.90
6379;DHT22;3222;48.858;10.128;2023-03-05T14:39:31;2.10;99.90
6379;DHT22;3222;48.858;10.128;2023-03-05T14:44:53;2.10;99.90
6379;DHT22;3222;48.858;10.128;2023-03-05T14:47:21;2.10;99.90
6379;DHT22;3222;48.858;10.128;2023-03-05T14:49:46;2.20;99.90
6379;DHT22;3222;48.858;10.128;2023-03-05T14:52:14;2.30;99.90
6379;DHT22;3222;48.858;10.128;2023-03-05T14:54:41;2.20;99.90
6379;DHT22;3222;48.858;10.128;2023-03-05T14:57:09;2.20;99.90
6379;DHT22;3222;48.858;10.128;2023-03-05T14:59:35;2.20;99.90
6379;DHT22;3222;48.858;10.128;2023-03-05T15:02:01;2.20;99.90
6379;DHT22;3222;48.858;10.128;2023-03-05T15:04:27;2.20;99.90
6379;DHT22;3222;48.858;10.128;2023-03-05T15:06:52;2.20;99.90
6379;DHT22;3222;48.858;10.128;2023-03-05T15:09:18;2.20;99.90
6379;DHT22;3222;48.858;10.128;2023-03-05T15:11:46;2.10;99.90
6379;DHT22;3222;48.858;10.128;2023-03-05T15:14:11;2.10;99.90
6379;DHT22;3222;48.858;10.128;2023-03-05T15:16:41;2.20;99.90
6379;DHT22;3222;48.858;10.128;2023-03-05T15:19:11;2.20;99.90
6379;DHT22;3222;48.858;10.128;2023-03-05T15:21:37;2.20;99.90
6379;DHT22;3222;48.858;10.128;2023-03-05T15:24:03;2.20;99.90
6379;DHT22;3222;48.858;10.128;2023-03-05T15:26:29;2.20;99.90
6379;DHT22;3222;48.858;10.128;2023-03-05T15:28:54;2.30;99.90
6379;DHT22;3222;48.858;10.128;2023-03-05T15:31:20;2.30;99.90
6379;DHT22;3222;48.858;10.128;2023-03-05T15:33:46;2.20;99.90
6379;DHT22;3222;48.858;10.128;2023-03-05T15:36:11;2.20;99.90
6379;DHT22;3222;48.858;10.128;2023-03-05T15:38:38;2.20;99.90
6379;DHT22;3222;48.858;10.128;2023-03-05T15:41:06;2.30;99.90
6379;DHT22;3222;48.858;10.128;2023-03-05T15:43:32;2.30;99.90
6379;DHT22;3222;48.858;10.128;2023-03-05T15:45:58;2.30;99.90
6379;DHT22;3222;48.858;10.128;2023-03-05T15:48:23;2.30;99.90
6379;DHT22;3222;48.858;10.128;2023-03-05T15:50:51;2.30;99.90
6379;DHT22;3222;48.858;10.128;2023-03-05T15:53:17;2.30;99.90
6379;DHT22;3222;48.858;10.128;2023-03-05T15:55:43;2.20;99.90
6379;DHT22;3222;48.858;10.128;2023-03-05T15:58:13;2.20;99.90
6379;DHT22;3222;48.858;10.128;2023-03-05T16:00:39;2.20;99.90
6379;DHT22;3222;48.858;10.128;2023-03-05T16:03:05;2.10;99.90
6379;DHT22;3222;48.858;10.128;2023-03-05T16:05:33;2.20;99.90
6379;DHT22;3222;48.858;10.128;2023-03-05T16:08:00;2.30;99.90
6379;DHT22;3222;48.858;10.128;2023-03-05T16:10:26;2.20;99.90
6379;DHT22;3222;48.858;10.128;2023-03-05T16:12:56;2.20;99.90
6379;DHT22;3222;48.858;10.128;2023-03-05T16:15:23;2.30;99.90
6379;DHT22;3222;48.858;10.128;2023-03-05T16:17:53;2.30;99.90
6379;DHT22;3222;48.858;10.128;2023-03-05T16:20:20;2.30;99.90
6379;DHT22;3222;48.858;10.128;2023-03-05T16:22:46;2.30;99.90
6379;DHT22;3222;48.858;10.128;2023-03-05T16:25:12;2.30;99.90
6379;DHT22;3222;48.858;10.128;2023-03-05T16:27:38;2.30;99.90
6379;DHT22;3222;48.858;10.128;2023-03-05T16:30:05;2.30;99.90
6379;DHT22;3222;48.858;10.128;2023-03-05T16:32:31;2.20;99.90
6379;DHT22;3222;48.858;10.128;2023-03-05T16:34:57;2.20;99.90
6379;DHT22;3222;48.858;10.128;2023-03-05T16:37:23;2.30;99.90
6379;DHT22;3222;48.858;10.128;2023-03-05T16:39:49;2.40;99.90
6379;DHT22;3222;48.858;10.128;2023-03-05T16:42:15;2.40;99.90
6379;DHT22;3222;48.858;10.128;2023-03-05T16:44:42;2.30;99.90
6379;DHT22;3222;48.858;10.128;2023-03-05T16:47:09;2.30;99.90
6379;DHT22;3222;48.858;10.128;2023-03-05T16:49:37;2.20;99.90
6379;DHT22;3222;48.858;10.128;2023-03-05T16:52:04;2.20;99.90
6379;DHT22;3222;48.858;10.128;2023-03-05T16:54:30;2.20;99.90
6379;DHT22;3222;48.858;10.128;2023-03-05T16:56:57;2.20;99.90
6379;DHT22;3222;48.858;10.128;2023-03-05T16:59:23;2.20;99.90
6379;DHT22;3222;48.858;10.128;2023-03-05T17:01:49;2.20;99.90
6379;DHT22;3222;48.858;10.128;2023-03-05T17:04:15;2.10;99.90
6379;DHT22;3222;48.858;10.128;2023-03-05T17:06:44;2.10;99.90
6379;DHT22;3222;48.858;10.128;2023-03-05T17:09:10;2.10;99.90
6379;DHT22;3222;48.858;10.128;2023-03-05T17:11:35;2.20;99.90
6379;DHT22;3222;48.858;10.128;2023-03-05T17:14:01;2.20;99.90
6379;DHT22;3222;48.858;10.128;2023-03-05T17:16:28;2.10;99.90
6379;DHT22;3222;48.858;10.128;2023-03-05T17:18:54;2.20;99.90
6379;DHT22;3222;48.858;10.128;2023-03-05T17:21:20;2.20;99.90
6379;DHT22;3222;48.858;10.128;2023-03-05T17:23:45;2.10;99.90
6379;DHT22;3222;48.858;10.128;2023-03-05T17:26:16;2.10;99.90
6379;DHT22;3222;48.858;10.128;2023-03-05T17:28:44;2.20;99.90
6379;DHT22;3222;48.858;10.128;2023-03-05T17:31:10;2.20;99.90
6379;DHT22;3222;48.858;10.128;2023-03-05T17:33:37;2.10;99.90
6379;DHT22;3222;48.858;10.128;2023-03-05T17:36:03;2.10;99.90
6379;DHT22;3222;48.858;10.128;2023-03-05T17:38:30;2.00;99.90
6379;DHT22;3222;48.858;10.128;2023-03-05T17:40:57;2.10;99.90
6379;DHT22;3222;48.858;10.128;2023-03-05T17:43:22;2.10;99.90
6379;DHT22;3222;48.858;10.128;2023-03-05T17:45:48;2.10;99.90
6379;DHT22;3222;48.858;10.128;2023-03-05T17:48:15;2.00;99.90